SCOT36 YBOK-YBOK
Flight info
| Callsign | SCOT36 |
|---|---|
| Flight time | 0h 16m |
| Altitude | 3500 |
| Route | DCT TWBDCT |
| Aircraft | EC45/L-SDFGRY/LB1 |
Departure
| Time | 2026-04-25 09:50 |
|---|---|
| Airport | Oakey Army Aviation Centre (YBOK) |
Arrival
| Time | 2026-04-25 10:07 |
|---|---|
| Airport | Oakey Army Aviation Centre (YBOK) |
| Time | Latitude | Longitude | Altitude | Speed | Heading |
|---|---|---|---|---|---|
| 2026-04-25 09:46 | -27.41281 | 151.73340 | 1334 ft | 0 kts | 99° |
| 2026-04-25 09:48 | -27.41284 | 151.73352 | 1342 ft | 8 kts | 97° |
| 2026-04-25 09:49 | -27.41294 | 151.73428 | 1343 ft | 9 kts | 71° |
| 2026-04-25 09:49 | -27.41235 | 151.73459 | 1347 ft | 9 kts | 295° |
| 2026-04-25 09:49 | -27.41214 | 151.73385 | 1336 ft | 0 kts | 289° |
| 2026-04-25 09:50 | -27.41213 | 151.73380 | 1347 ft | 8 kts | 289° |
| 2026-04-25 09:50 | -27.41166 | 151.73143 | 1538 ft | 52 kts | 284° |
| 2026-04-25 09:50 | -27.41050 | 151.72661 | 1808 ft | 70 kts | 292° |
| 2026-04-25 09:50 | -27.40618 | 151.72518 | 2128 ft | 75 kts | 28° |
| 2026-04-25 09:51 | -27.40380 | 151.73026 | 2449 ft | 82 kts | 88° |
| 2026-04-25 09:51 | -27.40395 | 151.73703 | 2569 ft | 88 kts | 96° |
| 2026-04-25 09:51 | -27.40426 | 151.74378 | 2728 ft | 86 kts | 96° |
| 2026-04-25 09:51 | -27.40491 | 151.75097 | 2871 ft | 95 kts | 96° |
| 2026-04-25 09:52 | -27.40567 | 151.75797 | 3077 ft | 89 kts | 98° |
| 2026-04-25 09:52 | -27.40651 | 151.76531 | 3305 ft | 102 kts | 97° |
| 2026-04-25 09:52 | -27.40750 | 151.77319 | 3419 ft | 100 kts | 97° |
| 2026-04-25 09:52 | -27.40913 | 151.78070 | 3461 ft | 100 kts | 120° |
| 2026-04-25 09:53 | -27.41380 | 151.78640 | 3479 ft | 99 kts | 138° |
| 2026-04-25 09:53 | -27.41889 | 151.79158 | 3489 ft | 99 kts | 139° |
| 2026-04-25 09:53 | -27.42400 | 151.79674 | 3498 ft | 99 kts | 139° |
| 2026-04-25 09:53 | -27.42912 | 151.80190 | 3498 ft | 99 kts | 139° |
| 2026-04-25 09:54 | -27.43424 | 151.80706 | 3500 ft | 99 kts | 139° |
| 2026-04-25 09:54 | -27.43942 | 151.81215 | 3497 ft | 99 kts | 141° |
| 2026-04-25 09:54 | -27.44467 | 151.81711 | 3498 ft | 99 kts | 141° |
| 2026-04-25 09:54 | -27.45009 | 151.82225 | 3477 ft | 113 kts | 141° |
| 2026-04-25 09:55 | -27.45684 | 151.82845 | 3506 ft | 129 kts | 141° |
| 2026-04-25 09:55 | -27.46351 | 151.83447 | 3496 ft | 122 kts | 142° |
| 2026-04-25 09:55 | -27.47019 | 151.84059 | 3498 ft | 124 kts | 141° |
| 2026-04-25 09:55 | -27.47673 | 151.84672 | 3500 ft | 124 kts | 140° |
| 2026-04-25 09:56 | -27.48331 | 151.85301 | 3498 ft | 124 kts | 140° |
| 2026-04-25 09:56 | -27.48988 | 151.85929 | 3499 ft | 124 kts | 140° |
| 2026-04-25 09:56 | -27.49644 | 151.86557 | 3505 ft | 124 kts | 140° |
| 2026-04-25 09:56 | -27.50290 | 151.87201 | 3502 ft | 124 kts | 139° |
| 2026-04-25 09:57 | -27.50928 | 151.87854 | 3501 ft | 124 kts | 138° |
| 2026-04-25 09:57 | -27.51555 | 151.88521 | 3498 ft | 124 kts | 136° |
| 2026-04-25 09:57 | -27.52175 | 151.89199 | 3498 ft | 124 kts | 136° |
| 2026-04-25 09:57 | -27.52797 | 151.89877 | 3498 ft | 124 kts | 136° |
| 2026-04-25 09:58 | -27.53417 | 151.90556 | 3498 ft | 124 kts | 136° |
| 2026-04-25 09:58 | -27.54021 | 151.91253 | 3508 ft | 123 kts | 129° |
| 2026-04-25 09:58 | -27.54058 | 151.92099 | 3569 ft | 113 kts | 47° |
| 2026-04-25 09:58 | -27.53406 | 151.92252 | 3736 ft | 100 kts | 319° |
| 2026-04-25 09:59 | -27.53171 | 151.91535 | 3737 ft | 109 kts | 262° |
| 2026-04-25 09:59 | -27.53313 | 151.90627 | 3473 ft | 131 kts | 267° |
| 2026-04-25 09:59 | -27.52992 | 151.89699 | 3485 ft | 118 kts | 294° |
| 2026-04-25 09:59 | -27.52617 | 151.88908 | 3543 ft | 113 kts | 297° |
| 2026-04-25 10:00 | -27.52249 | 151.88124 | 3528 ft | 112 kts | 296° |
| 2026-04-25 10:00 | -27.51901 | 151.87343 | 3531 ft | 111 kts | 295° |
| 2026-04-25 10:00 | -27.51496 | 151.86609 | 3530 ft | 110 kts | 302° |
| 2026-04-25 10:00 | -27.51092 | 151.85884 | 3540 ft | 109 kts | 301° |
| 2026-04-25 10:01 | -27.50684 | 151.85170 | 3552 ft | 108 kts | 302° |
| 2026-04-25 10:01 | -27.50118 | 151.84640 | 3555 ft | 108 kts | 338° |
| 2026-04-25 10:01 | -27.49417 | 151.84342 | 3565 ft | 108 kts | 338° |
| 2026-04-25 10:01 | -27.48705 | 151.84042 | 3556 ft | 110 kts | 339° |
| 2026-04-25 10:02 | -27.47983 | 151.83744 | 3547 ft | 111 kts | 339° |
| 2026-04-25 10:02 | -27.47252 | 151.83537 | 3536 ft | 108 kts | 13° |
| 2026-04-25 10:02 | -27.46912 | 151.83998 | 3822 ft | 58 kts | 180° |
| 2026-04-25 10:02 | -27.47198 | 151.84085 | 3906 ft | 75 kts | 233° |
| 2026-04-25 10:03 | -27.47240 | 151.83430 | 3905 ft | 93 kts | 281° |
| 2026-04-25 10:03 | -27.46836 | 151.82848 | 3887 ft | 112 kts | 313° |
| 2026-04-25 10:03 | -27.45986 | 151.82751 | 3675 ft | 137 kts | 357° |
| 2026-04-25 10:03 | -27.45072 | 151.83143 | 3575 ft | 140 kts | 11° |
| 2026-04-25 10:04 | -27.44468 | 151.83433 | 3544 ft | 139 kts | 11° |
| 2026-04-25 10:04 | -27.43410 | 151.83343 | 3888 ft | 104 kts | 288° |
| 2026-04-25 10:04 | -27.43119 | 151.82912 | 3952 ft | 112 kts | 288° |
| 2026-04-25 10:04 | -27.42553 | 151.82214 | 3928 ft | 122 kts | 287° |
| 2026-04-25 10:05 | -27.42174 | 151.81309 | 3776 ft | 139 kts | 276° |
| 2026-04-25 10:05 | -27.41914 | 151.80183 | 3414 ft | 156 kts | 266° |
| 2026-04-25 10:05 | -27.41818 | 151.78946 | 3084 ft | 155 kts | 263° |
| 2026-04-25 10:05 | -27.41743 | 151.77755 | 2710 ft | 150 kts | 265° |
| 2026-04-25 10:06 | -27.41648 | 151.76598 | 2360 ft | 146 kts | 270° |
| 2026-04-25 10:06 | -27.41532 | 151.75516 | 2086 ft | 132 kts | 279° |
| 2026-04-25 10:06 | -27.41399 | 151.74539 | 1818 ft | 115 kts | 281° |
| 2026-04-25 10:06 | -27.41285 | 151.73797 | 1607 ft | 75 kts | 281° |
| 2026-04-25 10:07 | -27.41222 | 151.73461 | 1362 ft | 13 kts | 279° |
| 2026-04-25 10:07 | -27.41219 | 151.73418 | 1344 ft | 7 kts | 281° |
| 2026-04-25 10:07 | -27.41214 | 151.73394 | 1338 ft | 0 kts | 279° |
| 2026-04-25 10:09 | -27.41208 | 151.73362 | 1341 ft | 10 kts | 280° |
| 2026-04-25 10:09 | -27.41213 | 151.73299 | 1343 ft | 10 kts | 206° |
| 2026-04-25 10:09 | -27.41279 | 151.73320 | 1349 ft | 11 kts | 102° |
| 2026-04-25 10:10 | -27.41282 | 151.73332 | 1337 ft | 0 kts | 103° |
| 2026-04-25 10:19 | -27.41281 | 151.73335 | 1340 ft | 4 kts | 98° |
| 2026-04-25 10:19 | -27.41265 | 151.73376 | 1346 ft | 6 kts | 64° |
| 2026-04-25 10:19 | -27.41271 | 151.73444 | 1344 ft | 9 kts | 30° |
| 2026-04-25 10:19 | -27.41166 | 151.73472 | 1339 ft | 16 kts | 26° |
| 2026-04-25 10:20 | -27.41121 | 151.73482 | 1334 ft | 1 kts | 37° |
| 2026-04-25 10:20 | -27.41101 | 151.73495 | 1347 ft | 10 kts | 25° |
| 2026-04-25 10:20 | -27.41052 | 151.73439 | 1362 ft | 24 kts | 287° |
| 2026-04-25 10:20 | -27.40995 | 151.73084 | 1481 ft | 69 kts | 279° |
| 2026-04-25 10:21 | -27.40894 | 151.72515 | 1708 ft | 74 kts | 281° |
| 2026-04-25 10:21 | -27.40573 | 151.72137 | 1917 ft | 72 kts | 354° |
| 2026-04-25 10:21 | -27.40077 | 151.72174 | 2117 ft | 71 kts | 10° |
| 2026-04-25 10:21 | -27.39595 | 151.72260 | 2328 ft | 71 kts | 13° |
| 2026-04-25 10:22 | -27.39107 | 151.72389 | 2627 ft | 73 kts | 13° |
| 2026-04-25 10:22 | -27.38602 | 151.72535 | 2850 ft | 76 kts | 13° |
| 2026-04-25 10:22 | -27.38065 | 151.72698 | 2977 ft | 86 kts | 14° |
| 2026-04-25 10:22 | -27.37446 | 151.72881 | 3024 ft | 96 kts | 15° |
| 2026-04-25 10:23 | -27.36801 | 151.73060 | 2985 ft | 93 kts | 12° |
| 2026-04-25 10:23 | -27.36172 | 151.73215 | 2955 ft | 92 kts | 11° |
| 2026-04-25 10:23 | -27.35579 | 151.73367 | 3144 ft | 85 kts | 13° |
| 2026-04-25 10:23 | -27.35004 | 151.73525 | 3247 ft | 86 kts | 14° |
| 2026-04-25 10:24 | -27.34420 | 151.73694 | 3283 ft | 87 kts | 14° |
| 2026-04-25 10:24 | -27.33838 | 151.73879 | 3301 ft | 87 kts | 15° |
| 2026-04-25 10:24 | -27.33261 | 151.74077 | 3308 ft | 87 kts | 16° |
| 2026-04-25 10:24 | -27.32679 | 151.74284 | 3232 ft | 89 kts | 16° |
| 2026-04-25 10:25 | -27.32079 | 151.74499 | 3029 ft | 91 kts | 15° |
| 2026-04-25 10:25 | -27.31508 | 151.74700 | 2973 ft | 79 kts | 17° |
| 2026-04-25 10:25 | -27.30983 | 151.74882 | 2980 ft | 78 kts | 16° |
| 2026-04-25 10:25 | -27.30468 | 151.75061 | 2991 ft | 76 kts | 17° |
| 2026-04-25 10:26 | -27.29983 | 151.75236 | 3210 ft | 72 kts | 18° |
| 2026-04-25 10:26 | -27.29508 | 151.75430 | 3419 ft | 73 kts | 19° |
| 2026-04-25 10:26 | -27.29029 | 151.75621 | 3528 ft | 77 kts | 17° |
| 2026-04-25 10:26 | -27.28695 | 151.76000 | 3594 ft | 67 kts | 84° |
| 2026-04-25 10:27 | -27.28875 | 151.76454 | 3672 ft | 64 kts | 138° |
| 2026-04-25 10:27 | -27.29274 | 151.76692 | 3733 ft | 68 kts | 167° |
| 2026-04-25 10:27 | -27.29773 | 151.76691 | 3637 ft | 75 kts | 190° |
| 2026-04-25 10:27 | -27.30312 | 151.76591 | 3561 ft | 85 kts | 185° |
| 2026-04-25 10:28 | -27.30941 | 151.76471 | 3442 ft | 96 kts | 192° |
| 2026-04-25 10:28 | -27.31438 | 151.76010 | 3439 ft | 95 kts | 243° |
| 2026-04-25 10:28 | -27.31395 | 151.75296 | 3441 ft | 97 kts | 300° |
| 2026-04-25 10:28 | -27.30812 | 151.74944 | 3403 ft | 102 kts | 356° |
| 2026-04-25 10:29 | -27.30109 | 151.75077 | 3293 ft | 102 kts | 9° |
| 2026-04-25 10:29 | -27.29396 | 151.75240 | 2993 ft | 106 kts | 10° |
| 2026-04-25 10:29 | -27.28672 | 151.75413 | 2651 ft | 106 kts | 10° |
| 2026-04-25 10:29 | -27.27978 | 151.75569 | 2588 ft | 97 kts | 11° |
| 2026-04-25 10:30 | -27.27320 | 151.75739 | 2615 ft | 99 kts | 19° |
| 2026-04-25 10:30 | -27.26940 | 151.76015 | 2631 ft | 100 kts | 44° |
| 2026-04-25 10:30 | -27.26671 | 151.76981 | 2646 ft | 103 kts | 99° |
| 2026-04-25 10:30 | -27.27021 | 151.77655 | 2656 ft | 100 kts | 142° |
| 2026-04-25 10:31 | -27.27700 | 151.77849 | 2604 ft | 106 kts | 185° |
| 2026-04-25 10:31 | -27.28354 | 151.77588 | 2666 ft | 94 kts | 241° |
| 2026-04-25 10:31 | -27.28612 | 151.76983 | 2651 ft | 82 kts | 266° |
| 2026-04-25 10:31 | -27.28428 | 151.76322 | 2555 ft | 102 kts | 286° |
| 2026-04-25 10:32 | -27.27809 | 151.75803 | 2450 ft | 124 kts | 325° |
| 2026-04-25 10:32 | -27.27148 | 151.75367 | 2683 ft | 106 kts | 286° |
| 2026-04-25 10:32 | -27.26851 | 151.74595 | 2740 ft | 112 kts | 286° |
| 2026-04-25 10:32 | -27.26535 | 151.73803 | 2691 ft | 111 kts | 300° |
| 2026-04-25 10:33 | -27.26209 | 151.73026 | 2668 ft | 109 kts | 295° |
| 2026-04-25 10:33 | -27.25940 | 151.72227 | 2636 ft | 110 kts | 288° |
| 2026-04-25 10:33 | -27.26072 | 151.71428 | 2614 ft | 111 kts | 230° |
| 2026-04-25 10:33 | -27.26732 | 151.71050 | 2664 ft | 107 kts | 193° |
| 2026-04-25 10:34 | -27.27485 | 151.71001 | 2683 ft | 111 kts | 177° |
| 2026-04-25 10:34 | -27.28253 | 151.71016 | 2731 ft | 110 kts | 180° |
| 2026-04-25 10:34 | -27.29021 | 151.71015 | 2882 ft | 111 kts | 181° |
| 2026-04-25 10:34 | -27.29798 | 151.71008 | 3016 ft | 112 kts | 181° |
| 2026-04-25 10:35 | -27.30585 | 151.70998 | 2997 ft | 114 kts | 180° |
| 2026-04-25 10:35 | -27.31384 | 151.70998 | 2980 ft | 114 kts | 185° |
| 2026-04-25 10:35 | -27.32092 | 151.70664 | 2986 ft | 111 kts | 221° |
| 2026-04-25 10:35 | -27.32479 | 151.69936 | 2995 ft | 109 kts | 257° |
| 2026-04-25 10:36 | -27.32400 | 151.69104 | 3016 ft | 109 kts | 293° |
| 2026-04-25 10:36 | -27.31892 | 151.68496 | 3034 ft | 109 kts | 330° |
| 2026-04-25 10:36 | -27.31166 | 151.68355 | 3058 ft | 109 kts | 7° |
| 2026-04-25 10:36 | -27.30498 | 151.68737 | 3092 ft | 110 kts | 44° |
| 2026-04-25 10:37 | -27.30175 | 151.69500 | 3112 ft | 110 kts | 83° |
| 2026-04-25 10:37 | -27.30359 | 151.70321 | 3130 ft | 110 kts | 124° |
| 2026-04-25 10:37 | -27.30961 | 151.70818 | 3124 ft | 109 kts | 163° |
| 2026-04-25 10:37 | -27.31692 | 151.70785 | 3026 ft | 105 kts | 203° |
| 2026-04-25 10:38 | -27.32218 | 151.70258 | 2870 ft | 101 kts | 242° |
| 2026-04-25 10:38 | -27.32380 | 151.69510 | 2664 ft | 97 kts | 262° |
| 2026-04-25 10:38 | -27.32465 | 151.68767 | 2449 ft | 94 kts | 263° |
| 2026-04-25 10:38 | -27.32559 | 151.68038 | 2216 ft | 95 kts | 261° |
| 2026-04-25 10:39 | -27.32688 | 151.67312 | 1993 ft | 94 kts | 257° |
| 2026-04-25 10:39 | -27.32852 | 151.66637 | 1920 ft | 81 kts | 256° |
| 2026-04-25 10:39 | -27.33008 | 151.66066 | 1961 ft | 76 kts | 253° |
| 2026-04-25 10:39 | -27.33180 | 151.65509 | 2045 ft | 72 kts | 253° |
| 2026-04-25 10:40 | -27.33334 | 151.64991 | 2274 ft | 69 kts | 252° |
| 2026-04-25 10:40 | -27.33324 | 151.64470 | 2523 ft | 67 kts | 286° |
| 2026-04-25 10:40 | -27.33057 | 151.64050 | 2778 ft | 67 kts | 320° |
| 2026-04-25 10:40 | -27.32771 | 151.63911 | 2948 ft | 68 kts | 355° |
| 2026-04-25 10:41 | -27.32332 | 151.64316 | 3295 ft | 67 kts | 82° |
| 2026-04-25 10:41 | -27.32289 | 151.64848 | 3535 ft | 73 kts | 88° |
| 2026-04-25 10:41 | -27.32279 | 151.65471 | 3557 ft | 86 kts | 90° |
| 2026-04-25 10:41 | -27.32284 | 151.66184 | 3519 ft | 95 kts | 90° |
| 2026-04-25 10:42 | -27.32297 | 151.66937 | 3494 ft | 97 kts | 91° |
| 2026-04-25 10:42 | -27.32317 | 151.67697 | 3393 ft | 97 kts | 91° |
| 2026-04-25 10:42 | -27.32326 | 151.68453 | 3222 ft | 96 kts | 90° |
| 2026-04-25 10:42 | -27.32322 | 151.69202 | 3068 ft | 95 kts | 89° |
| 2026-04-25 10:43 | -27.32308 | 151.69946 | 2914 ft | 95 kts | 88° |
| 2026-04-25 10:43 | -27.32282 | 151.70698 | 2742 ft | 97 kts | 87° |
| 2026-04-25 10:43 | -27.32246 | 151.71457 | 2555 ft | 98 kts | 87° |
| 2026-04-25 10:43 | -27.32426 | 151.72146 | 2505 ft | 92 kts | 134° |
| 2026-04-25 10:44 | -27.32964 | 151.72501 | 2550 ft | 95 kts | 156° |
| 2026-04-25 10:44 | -27.33592 | 151.72793 | 2656 ft | 99 kts | 161° |
| 2026-04-25 10:44 | -27.34248 | 151.73035 | 2826 ft | 100 kts | 164° |
| 2026-04-25 10:44 | -27.34919 | 151.73252 | 2972 ft | 101 kts | 165° |
| 2026-04-25 10:45 | -27.35609 | 151.73461 | 2895 ft | 104 kts | 165° |
| 2026-04-25 10:45 | -27.36317 | 151.73684 | 2585 ft | 105 kts | 164° |
| 2026-04-25 10:45 | -27.37010 | 151.73909 | 2294 ft | 101 kts | 165° |
| 2026-04-25 10:45 | -27.37675 | 151.74130 | 2015 ft | 98 kts | 165° |
| 2026-04-25 10:46 | -27.38330 | 151.74341 | 2001 ft | 100 kts | 167° |
| 2026-04-25 10:46 | -27.39018 | 151.74427 | 1968 ft | 97 kts | 188° |
| 2026-04-25 10:46 | -27.39673 | 151.74388 | 1891 ft | 95 kts | 188° |
| 2026-04-25 10:46 | -27.40322 | 151.74312 | 1707 ft | 88 kts | 189° |
| 2026-04-25 10:47 | -27.40843 | 151.74163 | 1602 ft | 69 kts | 212° |
| 2026-04-25 10:47 | -27.41066 | 151.73752 | 1476 ft | 55 kts | 258° |
| 2026-04-25 10:47 | -27.41064 | 151.73492 | 1344 ft | 10 kts | 281° |
| 2026-04-25 10:47 | -27.41063 | 151.73481 | 1341 ft | 1 kts | 140° |
| 2026-04-25 10:48 | -27.41095 | 151.73487 | 1344 ft | 7 kts | 189° |
| 2026-04-25 10:48 | -27.41150 | 151.73473 | 1346 ft | 9 kts | 192° |
| 2026-04-25 10:48 | -27.41209 | 151.73461 | 1340 ft | 8 kts | 193° |
| 2026-04-25 10:48 | -27.41259 | 151.73445 | 1343 ft | 7 kts | 250° |
| 2026-04-25 10:49 | -27.41261 | 151.73392 | 1343 ft | 7 kts | 265° |
| 2026-04-25 10:49 | -27.41276 | 151.73369 | 1337 ft | 6 kts | 156° |
| 2026-04-25 10:49 | -27.41290 | 151.73399 | 1334 ft | 0 kts | 107° |